createdAt,value
2023-04-15T00:01:55.061Z,5.38
2023-04-15T00:04:22.890Z,7.10
2023-04-15T00:06:53.266Z,6.43
2023-04-15T00:09:21.602Z,8.27
2023-04-15T00:11:50.866Z,5.70
2023-04-15T00:14:18.544Z,7.57
2023-04-15T00:16:46.266Z,6.75
2023-04-15T00:19:13.876Z,7.82
2023-04-15T00:21:41.514Z,6.35
2023-04-15T00:24:09.151Z,7.03
2023-04-15T00:26:36.775Z,7.80
2023-04-15T00:29:04.485Z,6.85
2023-04-15T00:31:32.965Z,9.48
2023-04-15T00:34:02.561Z,6.40
2023-04-15T00:36:30.088Z,7.10
2023-04-15T00:38:58.028Z,6.72
2023-04-15T00:41:25.792Z,8.80
2023-04-15T00:43:53.364Z,8.80
2023-04-15T00:46:22.793Z,6.28
2023-04-15T00:48:51.670Z,5.88
2023-04-15T00:51:19.703Z,5.35
2023-04-15T00:53:47.227Z,6.43
2023-04-15T00:56:14.830Z,7.28
2023-04-15T00:58:42.583Z,6.43
2023-04-15T01:01:11.489Z,6.70
2023-04-15T01:03:39.326Z,5.65
2023-04-15T01:06:07.576Z,7.18
2023-04-15T01:08:36.361Z,8.32
2023-04-15T01:11:04.133Z,6.85
2023-04-15T01:13:33.926Z,8.38
2023-04-15T01:16:03.151Z,6.63
2023-04-15T01:18:31.749Z,6.30
2023-04-15T01:21:04.084Z,9.18
2023-04-15T01:23:32.206Z,7.55
2023-04-15T01:26:00.632Z,6.70
2023-04-15T01:28:28.562Z,7.40
2023-04-15T01:31:09.995Z,6.38
2023-04-15T01:33:38.814Z,7.05
2023-04-15T01:36:26.197Z,3.95
2023-04-15T01:38:55.413Z,9.07
2023-04-15T01:41:27.387Z,6.90
2023-04-15T01:43:56.714Z,5.50
2023-04-15T01:46:26.854Z,6.75
2023-04-15T01:48:55.910Z,7.50
2023-04-15T01:51:24.815Z,5.80
2023-04-15T01:53:54.235Z,6.25
2023-04-15T01:56:24.673Z,6.47
2023-04-15T01:58:53.801Z,4.57
2023-04-15T02:01:22.869Z,6.18
2023-04-15T02:03:51.821Z,4.85
2023-04-15T02:06:21.148Z,7.47
2023-04-15T02:08:50.703Z,4.68
2023-04-15T02:11:19.979Z,5.75
2023-04-15T02:13:48.840Z,4.78
2023-04-15T02:16:19.262Z,6.25
2023-04-15T02:18:48.322Z,5.03
2023-04-15T02:21:17.192Z,5.60
2023-04-15T02:23:48.201Z,4.25
2023-04-15T02:26:17.185Z,4.72
2023-04-15T02:28:47.048Z,7.18
2023-04-15T02:31:17.928Z,5.03
2023-04-15T02:33:46.736Z,5.60
2023-04-15T02:36:15.719Z,5.80
2023-04-15T02:38:44.875Z,7.82
2023-04-15T02:41:15.828Z,5.32
2023-04-15T02:43:47.092Z,3.78
2023-04-15T02:46:17.080Z,6.20
2023-04-15T02:48:46.075Z,5.82
2023-04-15T02:51:17.332Z,6.25
2023-04-15T02:53:49.795Z,7.07
2023-04-15T02:56:19.907Z,5.03
2023-04-15T02:58:50.852Z,6.45
2023-04-15T03:01:20.645Z,5.95
2023-04-15T03:03:49.792Z,6.28
2023-04-15T03:06:18.835Z,5.55
2023-04-15T03:08:47.697Z,6.28
2023-04-15T03:11:17.807Z,5.40
2023-04-15T03:13:47.510Z,4.00
2023-04-15T03:16:31.564Z,6.35
2023-04-15T03:19:01.487Z,5.88
2023-04-15T03:21:31.328Z,6.13
2023-04-15T03:24:00.910Z,7.05
2023-04-15T03:26:31.806Z,6.72
2023-04-15T03:29:04.142Z,5.38
2023-04-15T03:31:33.117Z,6.30
2023-04-15T03:34:02.085Z,5.72
2023-04-15T03:36:34.796Z,7.68
2023-04-15T03:41:33.587Z,5.85
2023-04-15T03:44:02.467Z,4.25
2023-04-15T03:46:31.465Z,4.82
2023-04-15T03:49:00.687Z,5.03
2023-04-15T03:51:29.849Z,7.15
2023-04-15T03:53:58.875Z,10.57
2023-04-15T03:56:27.847Z,6.28
2023-04-15T03:58:56.894Z,8.25
2023-04-15T04:01:25.974Z,7.03
2023-04-15T04:03:55.039Z,6.75
2023-04-15T04:06:24.500Z,6.57
2023-04-15T04:08:53.356Z,5.28
2023-04-15T04:11:22.147Z,4.05
2023-04-15T04:13:50.996Z,4.57
2023-04-15T04:16:20.547Z,4.95
2023-04-15T04:18:49.555Z,5.43
2023-04-15T04:21:18.605Z,8.70
2023-04-15T04:23:47.562Z,5.40
2023-04-15T04:26:16.701Z,7.20
2023-04-15T04:28:45.702Z,7.95
2023-04-15T04:31:14.615Z,7.97
2023-04-15T04:33:43.640Z,4.00
2023-04-15T04:36:12.427Z,4.47
2023-04-15T04:38:41.481Z,4.35
2023-04-15T04:41:10.339Z,5.30
2023-04-15T04:43:39.180Z,4.43
2023-04-15T04:46:08.105Z,5.15
2023-04-15T04:48:37.121Z,6.68
2023-04-15T04:51:06.222Z,3.40
2023-04-15T04:53:36.196Z,4.32
2023-04-15T04:56:05.210Z,6.07
2023-04-15T04:58:34.043Z,6.65
2023-04-15T05:01:03.169Z,4.05
2023-04-15T05:03:32.178Z,5.18
2023-04-15T05:06:03.121Z,5.28
2023-04-15T05:08:31.969Z,6.00
2023-04-15T05:11:01.252Z,5.95
2023-04-15T05:13:30.406Z,6.32
2023-04-15T05:15:59.745Z,3.67
2023-04-15T05:18:29.204Z,21.63
2023-04-15T05:20:58.443Z,15.93
2023-04-15T05:23:27.731Z,8.38
2023-04-15T05:25:56.854Z,6.00
2023-04-15T05:28:25.717Z,4.75
2023-04-15T05:30:54.799Z,6.85
2023-04-15T05:33:23.740Z,7.30
2023-04-15T05:35:52.860Z,4.35
2023-04-15T05:38:21.849Z,4.53
2023-04-15T05:40:51.054Z,5.63
2023-04-15T05:43:19.908Z,6.65
2023-04-15T05:45:48.804Z,12.45
2023-04-15T05:48:17.642Z,10.85
2023-04-15T05:50:46.648Z,9.32
2023-04-15T05:53:15.532Z,11.95
2023-04-15T05:55:44.430Z,6.13
2023-04-15T05:58:13.225Z,7.85
2023-04-15T06:00:42.190Z,6.78
2023-04-15T06:03:11.955Z,6.78
2023-04-15T06:05:41.087Z,9.15
2023-04-15T06:08:09.951Z,9.00
2023-04-15T06:10:38.949Z,7.10
2023-04-15T06:13:08.245Z,11.55
2023-04-15T06:15:37.743Z,51.72
2023-04-15T06:18:06.556Z,19.98
2023-04-15T06:20:35.416Z,10.40
2023-04-15T06:23:04.319Z,7.22
2023-04-15T06:25:33.364Z,7.15
2023-04-15T06:28:02.187Z,7.63
2023-04-15T06:30:31.336Z,7.80
2023-04-15T06:33:00.593Z,6.70
2023-04-15T06:35:29.535Z,8.00
2023-04-15T06:37:58.614Z,7.97
2023-04-15T06:40:27.993Z,10.70
2023-04-15T06:42:56.923Z,11.45
2023-04-15T06:45:25.772Z,8.43
2023-04-15T06:47:54.687Z,13.80
2023-04-15T06:50:24.061Z,16.50
2023-04-15T06:52:53.965Z,15.70
2023-04-15T06:55:22.887Z,14.98
2023-04-15T06:57:51.979Z,13.90
2023-04-15T07:00:21.217Z,11.68
2023-04-15T07:02:50.180Z,14.07
2023-04-15T07:05:20.228Z,9.90
2023-04-15T07:07:49.119Z,11.93
2023-04-15T07:10:19.517Z,13.35
2023-04-15T07:12:49.028Z,12.18
2023-04-15T07:15:19.113Z,13.10
2023-04-15T07:17:48.177Z,8.57
2023-04-15T07:20:17.289Z,11.50
2023-04-15T07:22:46.204Z,10.20
2023-04-15T07:25:15.031Z,9.98
2023-04-15T07:27:43.954Z,10.93
2023-04-15T07:30:13.294Z,7.55
2023-04-15T07:32:42.621Z,10.10
2023-04-15T07:35:11.807Z,8.07
2023-04-15T07:37:41.627Z,11.18
2023-04-15T07:40:10.967Z,9.90
2023-04-15T07:42:41.367Z,21.00
2023-04-15T07:45:10.851Z,12.55
2023-04-15T07:47:40.890Z,12.30
2023-04-15T07:50:11.532Z,9.25
2023-04-15T07:52:40.654Z,9.80
2023-04-15T07:55:10.073Z,7.78
2023-04-15T07:57:39.015Z,7.93
2023-04-15T08:00:08.503Z,7.35
2023-04-15T08:02:43.695Z,8.68
2023-04-15T08:05:14.333Z,7.22
2023-04-15T08:07:43.223Z,12.93
2023-04-15T08:10:12.405Z,9.15
2023-04-15T08:12:41.619Z,8.90
2023-04-15T08:15:10.795Z,6.38
2023-04-15T08:17:39.980Z,10.88
2023-04-15T08:20:09.697Z,7.28
2023-04-15T08:22:38.727Z,9.00
2023-04-15T08:25:07.891Z,14.73
2023-04-15T08:27:36.862Z,10.13
2023-04-15T08:30:06.414Z,8.35
2023-04-15T08:32:35.335Z,7.50
2023-04-15T08:35:04.410Z,15.27
2023-04-15T08:37:33.235Z,15.50
2023-04-15T08:40:02.189Z,15.60
2023-04-15T08:42:42.913Z,16.52
2023-04-15T08:45:12.874Z,8.07
2023-04-15T08:47:44.729Z,6.05
2023-04-15T08:50:15.459Z,5.10
2023-04-15T08:52:44.524Z,9.88
2023-04-15T08:55:14.680Z,4.97
2023-04-15T08:57:43.869Z,4.28
2023-04-15T09:00:14.295Z,4.15
2023-04-15T09:02:43.847Z,3.88
2023-04-15T09:05:12.950Z,6.05
2023-04-15T09:07:41.902Z,6.35
2023-04-15T09:10:11.196Z,6.93
2023-04-15T09:12:40.160Z,7.07
2023-04-15T09:15:12.871Z,5.25
2023-04-15T09:20:15.786Z,4.90
2023-04-15T09:22:48.581Z,6.75
2023-04-15T09:25:23.766Z,4.45
2023-04-15T09:27:57.607Z,4.75
2023-04-15T09:30:28.593Z,3.38
2023-04-15T09:33:02.532Z,4.50
2023-04-15T09:35:31.598Z,3.50
2023-04-15T09:38:09.212Z,5.05
2023-04-15T09:40:42.119Z,3.55
2023-04-15T09:43:13.349Z,4.03
2023-04-15T09:45:51.001Z,3.55
2023-04-15T09:48:28.408Z,5.13
2023-04-15T09:51:01.956Z,2.80
2023-04-15T09:53:34.750Z,4.78
2023-04-15T09:56:04.155Z,2.95
2023-04-15T09:58:35.307Z,6.15
2023-04-15T10:01:05.335Z,7.00
2023-04-15T10:03:38.188Z,5.25
2023-04-15T10:06:08.023Z,3.65
2023-04-15T10:08:37.000Z,18.02
2023-04-15T10:11:08.021Z,6.25
2023-04-15T10:13:38.193Z,9.45
2023-04-15T10:16:12.118Z,10.93
2023-04-15T10:18:52.584Z,10.90
2023-04-15T10:21:22.717Z,9.43
2023-04-15T10:23:52.358Z,12.77
2023-04-15T10:26:22.196Z,10.40
2023-04-15T10:28:52.392Z,13.65
2023-04-15T10:31:21.741Z,11.30
2023-04-15T10:33:52.145Z,12.77
2023-04-15T10:36:21.565Z,6.30
2023-04-15T10:38:50.524Z,8.30
2023-04-15T10:41:29.916Z,6.50
2023-04-15T10:44:05.664Z,6.18
2023-04-15T10:46:37.887Z,3.20
2023-04-15T10:49:24.544Z,2.10
2023-04-15T10:51:58.091Z,18.92
2023-04-15T10:54:27.016Z,7.63
2023-04-15T10:57:02.480Z,2.28
2023-04-15T10:59:31.993Z,3.67
2023-04-15T11:02:06.096Z,2.28
2023-04-15T11:04:58.142Z,2.58
2023-04-15T11:07:52.211Z,3.83
2023-04-15T11:10:21.272Z,2.60
2023-04-15T11:12:57.412Z,5.10
2023-04-15T11:15:30.451Z,3.05
2023-04-15T11:18:09.547Z,3.80
2023-04-15T11:20:40.060Z,1.98
2023-04-15T11:23:14.942Z,2.53
2023-04-15T11:25:44.962Z,15.07
2023-04-15T11:28:14.344Z,2.25
2023-04-15T11:30:44.159Z,2.28
2023-04-15T11:33:13.953Z,2.08
2023-04-15T11:35:43.191Z,1.75
2023-04-15T11:38:14.065Z,1.48
2023-04-15T11:40:46.149Z,13.55
2023-04-15T11:43:21.261Z,2.10
2023-04-15T11:46:00.463Z,3.70
2023-04-15T11:48:31.230Z,14.50
2023-04-15T11:51:06.051Z,6.78
2023-04-15T11:53:46.276Z,5.05
2023-04-15T11:56:19.357Z,3.42
2023-04-15T11:58:47.639Z,5.05
2023-04-15T12:01:15.217Z,27.83
2023-04-15T12:03:45.682Z,28.17
2023-04-15T12:06:24.771Z,5.10
2023-04-15T12:09:09.713Z,24.25
2023-04-15T12:11:41.753Z,11.90
2023-04-15T12:14:16.162Z,44.35
2023-04-15T12:16:49.299Z,1.63
2023-04-15T12:19:23.446Z,1.13
2023-04-15T12:21:51.500Z,1.25
2023-04-15T12:24:22.865Z,2.50
2023-04-15T12:26:55.272Z,1.70
2023-04-15T12:29:27.408Z,2.42
2023-04-15T12:32:04.243Z,1.55
2023-04-15T12:34:44.995Z,2.55
2023-04-15T12:37:14.472Z,2.15
2023-04-15T12:39:44.786Z,16.80
2023-04-15T12:42:13.047Z,5.80
2023-04-15T12:44:41.019Z,2.25
2023-04-15T12:47:10.240Z,2.97
2023-04-15T12:49:39.918Z,1.48
2023-04-15T12:52:25.946Z,1.02
2023-04-15T12:54:53.813Z,3.08
2023-04-15T12:57:22.636Z,4.68
2023-04-15T12:59:50.384Z,1.17
2023-04-15T13:02:18.977Z,1.30
2023-04-15T13:04:46.727Z,4.45
2023-04-15T13:07:15.702Z,2.20
2023-04-15T13:09:44.458Z,4.65
2023-04-15T13:12:13.902Z,2.53
2023-04-15T13:14:41.786Z,1.73
2023-04-15T13:17:10.368Z,2.13
2023-04-15T13:19:39.095Z,3.70
2023-04-15T13:22:08.493Z,4.47
2023-04-15T13:24:36.350Z,6.05
2023-04-15T13:27:04.576Z,5.28
2023-04-15T13:29:32.733Z,2.75
2023-04-15T13:32:01.705Z,8.13
2023-04-15T13:34:29.360Z,4.40
2023-04-15T13:36:57.144Z,1.98
2023-04-15T13:39:24.727Z,2.60
2023-04-15T13:41:52.338Z,2.10
2023-04-15T13:44:22.045Z,4.22
2023-04-15T13:46:49.959Z,2.63
2023-04-15T13:49:18.586Z,3.13
2023-04-15T13:51:46.386Z,3.50
2023-04-15T13:54:14.171Z,1.73
2023-04-15T13:56:41.761Z,11.13
2023-04-15T13:59:09.575Z,6.38
2023-04-15T14:01:37.304Z,3.47
2023-04-15T14:04:05.372Z,5.03
2023-04-15T14:06:33.289Z,9.13
2023-04-15T14:09:01.036Z,6.10
2023-04-15T14:11:30.084Z,3.25
2023-04-15T14:13:57.860Z,1.55
2023-04-15T14:16:25.517Z,1.00
2023-04-15T14:18:54.294Z,0.98
2023-04-15T14:21:22.148Z,1.10
2023-04-15T14:23:49.789Z,1.17
2023-04-15T14:26:17.831Z,0.70
2023-04-15T14:28:45.542Z,0.95
2023-04-15T14:31:14.326Z,0.70
2023-04-15T14:33:42.709Z,1.40
2023-04-15T14:36:10.762Z,4.60
2023-04-15T14:38:39.190Z,4.72
2023-04-15T14:41:11.087Z,2.50
2023-04-15T14:43:39.074Z,1.65
2023-04-15T14:46:06.736Z,1.02
2023-04-15T14:48:34.445Z,0.90
2023-04-15T14:51:02.352Z,3.30
2023-04-15T14:53:29.919Z,3.13
2023-04-15T14:55:58.070Z,1.60
2023-04-15T14:58:25.997Z,1.33
2023-04-15T15:00:53.778Z,1.27
2023-04-15T15:03:22.020Z,1.83
2023-04-15T15:05:49.902Z,2.10
2023-04-15T15:08:18.307Z,2.83
2023-04-15T15:10:48.311Z,1.60
2023-04-15T15:13:19.301Z,0.73
2023-04-15T15:15:49.508Z,0.90
2023-04-15T15:18:19.398Z,1.85
2023-04-15T15:20:48.014Z,1.20
2023-04-15T15:23:15.752Z,2.75
2023-04-15T15:25:44.199Z,5.15
2023-04-15T15:28:12.183Z,1.98
2023-04-15T15:30:39.752Z,2.63
2023-04-15T15:33:07.500Z,2.97
2023-04-15T15:35:35.766Z,2.22
2023-04-15T15:38:03.427Z,2.03
2023-04-15T15:40:31.402Z,1.60
2023-04-15T15:42:59.053Z,1.45
2023-04-15T15:45:27.456Z,3.30
2023-04-15T15:47:57.156Z,3.08
2023-04-15T15:50:24.986Z,2.22
2023-04-15T15:52:52.653Z,2.38
2023-04-15T15:55:20.329Z,7.32
2023-04-15T15:57:47.970Z,3.25
2023-04-15T16:00:16.110Z,9.55
2023-04-15T16:05:14.884Z,4.57
2023-04-15T16:07:42.577Z,1.80
2023-04-15T16:10:11.562Z,6.53
2023-04-15T16:12:39.382Z,2.05
2023-04-15T16:15:09.073Z,4.32
2023-04-15T16:17:36.929Z,2.20
2023-04-15T16:20:05.882Z,2.20
2023-04-15T16:22:35.194Z,6.20
2023-04-15T16:25:02.991Z,3.83
2023-04-15T16:27:31.317Z,6.18
2023-04-15T16:29:59.205Z,3.80
2023-04-15T16:32:26.812Z,2.42
2023-04-15T16:34:54.678Z,2.78
2023-04-15T16:37:22.414Z,2.00
2023-04-15T16:39:50.168Z,2.10
2023-04-15T16:42:18.237Z,2.83
2023-04-15T16:44:46.000Z,2.00
2023-04-15T16:47:14.116Z,3.67
2023-04-15T16:49:41.873Z,2.28
2023-04-15T16:52:09.503Z,3.63
2023-04-15T16:54:41.456Z,4.57
2023-04-15T16:57:09.554Z,2.25
2023-04-15T16:59:38.223Z,2.10
2023-04-15T17:02:06.437Z,4.20
2023-04-15T17:04:35.110Z,6.55
2023-04-15T17:07:03.342Z,4.15
2023-04-15T17:09:30.989Z,3.85
2023-04-15T17:11:58.810Z,4.65
2023-04-15T17:14:29.182Z,6.15
2023-04-15T17:16:56.875Z,8.60
2023-04-15T17:19:25.044Z,3.60
2023-04-15T17:22:02.617Z,6.07
2023-04-15T17:24:32.035Z,5.45
2023-04-15T17:27:04.110Z,3.58
2023-04-15T17:29:35.223Z,3.58
2023-04-15T17:32:06.433Z,6.78
2023-04-15T17:34:54.623Z,3.85
2023-04-15T17:37:22.800Z,3.53
2023-04-15T17:40:11.802Z,2.53
2023-04-15T17:43:00.320Z,10.52
2023-04-15T17:45:48.633Z,16.45
2023-04-15T17:48:36.675Z,28.92
2023-04-15T17:51:26.887Z,20.23
2023-04-15T17:54:27.493Z,15.00
2023-04-15T17:57:16.138Z,4.70
2023-04-15T18:00:04.207Z,3.72
2023-04-15T18:03:00.343Z,5.80
2023-04-15T18:05:49.788Z,6.72
2023-04-15T18:08:38.420Z,4.53
2023-04-15T18:11:26.765Z,10.70
2023-04-15T18:14:23.508Z,11.63
2023-04-15T18:17:20.763Z,9.55
2023-04-15T18:20:09.243Z,10.07
2023-04-15T18:22:40.592Z,9.77
2023-04-15T18:25:09.268Z,7.13
2023-04-15T18:27:39.541Z,6.35
2023-04-15T18:30:09.353Z,16.45
2023-04-15T18:32:37.593Z,12.45
2023-04-15T18:35:07.345Z,65.10
2023-04-15T18:37:35.964Z,80.97
2023-04-15T18:40:04.556Z,88.32
2023-04-15T18:42:43.407Z,32.90
2023-04-15T18:45:12.244Z,40.72
2023-04-15T18:47:42.312Z,21.65
2023-04-15T18:50:11.033Z,13.07
2023-04-15T18:52:39.635Z,6.05
2023-04-15T18:55:08.836Z,7.40
2023-04-15T18:57:42.937Z,7.85
2023-04-15T19:00:15.129Z,4.07
2023-04-15T19:02:45.320Z,4.18
2023-04-15T19:05:14.756Z,3.72
2023-04-15T19:07:43.333Z,5.60
2023-04-15T19:10:12.883Z,5.05
2023-04-15T19:12:41.380Z,6.78
2023-04-15T19:15:10.236Z,3.28
2023-04-15T19:17:39.149Z,3.17
2023-04-15T19:20:07.762Z,5.97
2023-04-15T19:22:37.298Z,7.10
2023-04-15T19:25:06.812Z,6.07
2023-04-15T19:27:38.808Z,4.30
2023-04-15T19:30:09.733Z,3.42
2023-04-15T19:32:38.750Z,3.30
2023-04-15T19:35:09.914Z,2.30
2023-04-15T19:37:40.620Z,6.10
2023-04-15T19:40:10.198Z,4.28
2023-04-15T19:42:47.748Z,2.75
2023-04-15T19:45:16.459Z,3.20
2023-04-15T19:47:45.353Z,2.55
2023-04-15T19:50:14.008Z,4.28
2023-04-15T19:52:51.597Z,4.10
2023-04-15T19:55:20.064Z,3.00
2023-04-15T19:57:48.309Z,4.20
2023-04-15T20:00:17.314Z,2.30
2023-04-15T20:02:47.614Z,4.57
2023-04-15T20:05:16.119Z,4.78
2023-04-15T20:07:45.254Z,7.22
2023-04-15T20:10:13.471Z,9.80
2023-04-15T20:12:51.258Z,8.27
2023-04-15T20:15:21.947Z,5.47
2023-04-15T20:17:51.036Z,3.72
2023-04-15T20:20:19.547Z,4.00
2023-04-15T20:22:48.085Z,4.22
2023-04-15T20:25:16.453Z,3.42
2023-04-15T20:27:44.904Z,4.32
2023-04-15T20:30:13.919Z,4.57
2023-04-15T20:32:43.924Z,9.50
2023-04-15T20:35:12.408Z,17.75
2023-04-15T20:37:43.937Z,3.97
2023-04-15T20:40:14.413Z,1.77
2023-04-15T20:42:43.974Z,1.25
2023-04-15T20:45:12.039Z,1.85
2023-04-15T20:47:40.553Z,2.15
2023-04-15T20:50:09.058Z,0.98
2023-04-15T20:52:39.332Z,1.20
2023-04-15T20:55:08.352Z,2.15
2023-04-15T20:57:36.082Z,0.50
2023-04-15T21:00:05.600Z,0.90
2023-04-15T21:02:33.813Z,1.67
2023-04-15T21:05:01.830Z,2.58
2023-04-15T21:07:29.666Z,3.05
2023-04-15T21:09:57.268Z,2.28
2023-04-15T21:12:25.331Z,1.70
2023-04-15T21:14:53.283Z,1.83
2023-04-15T21:17:21.011Z,1.45
2023-04-15T21:19:48.615Z,1.55
2023-04-15T21:22:16.279Z,0.80
2023-04-15T21:24:44.221Z,1.42
2023-04-15T21:27:11.857Z,1.10
2023-04-15T21:29:40.491Z,2.35
2023-04-15T21:32:08.471Z,4.00
2023-04-15T21:34:36.137Z,1.48
2023-04-15T21:37:03.796Z,0.70
2023-04-15T21:39:31.665Z,0.88
2023-04-15T21:41:59.841Z,2.10
2023-04-15T21:44:27.521Z,1.63
2023-04-15T21:46:55.199Z,3.38
2023-04-15T21:49:24.935Z,3.47
2023-04-15T21:51:53.235Z,3.30
2023-04-15T21:54:21.059Z,1.63
2023-04-15T21:56:49.848Z,0.70
2023-04-15T21:59:17.511Z,0.65
2023-04-15T22:01:45.520Z,1.40
2023-04-15T22:04:13.247Z,2.60
2023-04-15T22:06:40.918Z,2.03
2023-04-15T22:09:08.578Z,2.70
2023-04-15T22:11:36.523Z,1.13
2023-04-15T22:14:05.350Z,1.58
2023-04-15T22:16:32.998Z,3.63
2023-04-15T22:19:00.692Z,2.47
2023-04-15T22:21:28.421Z,2.60
2023-04-15T22:24:32.171Z,0.80
2023-04-15T22:26:43.876Z,1.27
2023-04-15T22:29:11.403Z,4.22
2023-04-15T22:31:39.121Z,1.23
2023-04-15T22:34:06.876Z,1.20
2023-04-15T22:36:34.474Z,3.67
2023-04-15T22:39:02.027Z,2.75
2023-04-15T22:41:29.596Z,3.95
2023-04-15T22:43:57.360Z,3.20
2023-04-15T22:46:25.046Z,6.03
2023-04-15T22:48:54.189Z,2.97
2023-04-15T22:51:23.587Z,1.73
2023-04-15T22:53:51.256Z,1.13
2023-04-15T22:56:20.881Z,0.90
2023-04-15T22:58:49.448Z,1.10
2023-04-15T23:01:17.894Z,2.85
2023-04-15T23:03:56.677Z,3.65
2023-04-15T23:06:31.876Z,1.58
2023-04-15T23:08:59.466Z,1.83
2023-04-15T23:11:27.094Z,1.27
2023-04-15T23:13:54.607Z,1.00
2023-04-15T23:16:22.489Z,1.55
2023-04-15T23:18:50.442Z,2.13
2023-04-15T23:21:18.045Z,2.72
2023-04-15T23:23:45.543Z,2.35
2023-04-15T23:26:13.206Z,1.38
2023-04-15T23:28:41.020Z,1.33
2023-04-15T23:31:08.695Z,1.73
2023-04-15T23:33:38.189Z,0.57
2023-04-15T23:36:06.579Z,1.55
2023-04-15T23:38:34.188Z,1.85
2023-04-15T23:41:01.765Z,2.17
2023-04-15T23:43:29.295Z,0.95
2023-04-15T23:45:57.049Z,1.10
2023-04-15T23:48:24.638Z,1.25
2023-04-15T23:50:52.294Z,2.03
2023-04-15T23:53:19.908Z,4.82
2023-04-15T23:55:49.096Z,4.40
2023-04-15T23:58:17.010Z,3.45
